createdAt,value
2022-10-11T00:00:03.755Z,6.90
2022-10-11T00:02:30.517Z,11.43
2022-10-11T00:04:57.252Z,11.02
2022-10-11T00:07:24.044Z,9.25
2022-10-11T00:09:50.803Z,10.98
2022-10-11T00:12:17.656Z,8.88
2022-10-11T00:14:44.466Z,10.13
2022-10-11T00:17:11.477Z,11.20
2022-10-11T00:19:38.222Z,9.13
2022-10-11T00:22:05.007Z,10.00
2022-10-11T00:24:31.750Z,8.70
2022-10-11T00:26:58.480Z,7.95
2022-10-11T00:29:26.369Z,9.65
2022-10-11T00:31:53.167Z,7.95
2022-10-11T00:34:19.935Z,8.88
2022-10-11T00:36:46.818Z,10.07
2022-10-11T00:39:14.493Z,11.98
2022-10-11T00:41:41.654Z,12.60
2022-10-11T00:44:19.077Z,9.23
2022-10-11T00:46:53.653Z,14.43
2022-10-11T00:49:22.498Z,13.73
2022-10-11T00:51:52.351Z,12.38
2022-10-11T00:54:21.116Z,13.20
2022-10-11T00:56:53.067Z,15.45
2022-10-11T00:59:22.980Z,16.58
2022-10-11T01:01:49.910Z,15.30
2022-10-11T01:04:16.706Z,16.65
2022-10-11T01:06:43.923Z,15.02
2022-10-11T01:09:11.088Z,16.50
2022-10-11T01:11:39.234Z,11.60
2022-10-11T01:14:23.871Z,15.38
2022-10-11T01:17:09.643Z,13.35
2022-10-11T01:19:55.300Z,16.27
2022-10-11T01:22:41.082Z,18.15
2022-10-11T01:25:13.748Z,19.23
2022-10-11T01:27:46.917Z,17.00
2022-10-11T01:30:27.563Z,14.40
2022-10-11T01:33:01.251Z,15.88
2022-10-11T01:35:30.807Z,16.67
2022-10-11T01:38:02.977Z,13.43
2022-10-11T01:40:33.769Z,14.48
2022-10-11T01:43:01.664Z,13.75
2022-10-11T01:45:29.076Z,17.67
2022-10-11T01:48:06.409Z,15.75
2022-10-11T01:50:59.508Z,12.93
2022-10-11T01:53:40.136Z,13.63
2022-10-11T01:56:16.918Z,14.57
2022-10-11T01:58:43.638Z,18.77
2022-10-11T02:01:31.523Z,15.75
2022-10-11T02:04:04.567Z,15.57
2022-10-11T02:06:31.290Z,14.07
2022-10-11T02:08:58.001Z,14.23
2022-10-11T02:11:26.611Z,15.38
2022-10-11T02:13:58.807Z,12.98
2022-10-11T02:16:33.254Z,12.95
2022-10-11T02:19:01.609Z,13.02
2022-10-11T02:21:29.762Z,16.92
2022-10-11T02:24:00.361Z,16.50
2022-10-11T02:26:29.163Z,20.55
2022-10-11T02:28:57.714Z,13.48
2022-10-11T02:31:25.148Z,14.05
2022-10-11T02:34:10.083Z,15.45
2022-10-11T02:36:40.276Z,14.20
2022-10-11T02:39:14.038Z,17.45
2022-10-11T02:41:43.107Z,12.85
2022-10-11T02:44:13.587Z,14.07
2022-10-11T02:46:40.983Z,11.05
2022-10-11T02:49:08.526Z,13.68
2022-10-11T02:51:36.046Z,10.52
2022-10-11T02:54:05.395Z,10.07
2022-10-11T02:56:32.208Z,13.63
2022-10-11T02:58:59.014Z,15.20
2022-10-11T03:01:25.938Z,12.25
2022-10-11T03:03:52.839Z,10.32
2022-10-11T03:06:22.548Z,11.68
2022-10-11T03:08:49.313Z,14.90
2022-10-11T03:11:16.358Z,10.85
2022-10-11T03:13:43.082Z,11.05
2022-10-11T03:16:10.352Z,11.23
2022-10-11T03:18:37.308Z,9.50
2022-10-11T03:21:04.096Z,13.25
2022-10-11T03:23:30.881Z,14.43
2022-10-11T03:25:57.718Z,12.00
2022-10-11T03:28:24.547Z,12.68
2022-10-11T03:30:51.608Z,12.75
2022-10-11T03:33:21.687Z,10.63
2022-10-11T03:35:48.800Z,10.07
2022-10-11T03:38:17.272Z,12.93
2022-10-11T03:40:44.192Z,14.35
2022-10-11T03:43:11.108Z,12.30
2022-10-11T03:45:38.182Z,8.40
2022-10-11T03:48:05.065Z,14.55
2022-10-11T03:50:31.827Z,15.10
2022-10-11T03:52:58.602Z,15.35
2022-10-11T03:55:25.438Z,13.75
2022-10-11T03:57:52.187Z,14.75
2022-10-11T04:00:18.942Z,13.15
2022-10-11T04:02:45.704Z,11.45
2022-10-11T04:05:12.755Z,15.63
2022-10-11T04:07:39.874Z,13.07
2022-10-11T04:10:07.351Z,13.85
2022-10-11T04:12:34.497Z,10.02
2022-10-11T04:15:01.351Z,14.85
2022-10-11T04:17:28.404Z,11.23
2022-10-11T04:19:55.171Z,13.88
2022-10-11T04:22:21.916Z,14.15
2022-10-11T04:24:48.703Z,10.65
2022-10-11T04:27:15.452Z,16.33
2022-10-11T04:29:42.211Z,10.65
2022-10-11T04:32:08.963Z,11.95
2022-10-11T04:34:35.678Z,9.40
2022-10-11T04:37:02.418Z,21.67
2022-10-11T04:39:29.197Z,9.52
2022-10-11T04:41:55.970Z,9.43
2022-10-11T04:44:22.738Z,9.80
2022-10-11T04:46:49.565Z,11.40
2022-10-11T04:49:16.329Z,13.65
2022-10-11T04:51:43.105Z,14.02
2022-10-11T04:54:09.867Z,14.15
2022-10-11T04:56:36.661Z,12.25
2022-10-11T04:59:03.698Z,12.65
2022-10-11T05:01:30.492Z,12.02
2022-10-11T05:03:57.284Z,10.90
2022-10-11T05:06:24.057Z,13.70
2022-10-11T05:08:50.873Z,14.38
2022-10-11T05:11:17.729Z,10.75
2022-10-11T05:13:45.284Z,10.63
2022-10-11T05:16:12.873Z,12.02
2022-10-11T05:18:40.246Z,9.63
2022-10-11T05:21:09.052Z,12.00
2022-10-11T05:23:36.450Z,12.25
2022-10-11T05:26:03.805Z,10.50
2022-10-11T05:28:30.874Z,9.13
2022-10-11T05:30:57.716Z,10.57
2022-10-11T05:33:24.897Z,11.30
2022-10-11T05:35:51.718Z,10.40
2022-10-11T05:38:18.567Z,9.43
2022-10-11T05:40:45.340Z,11.02
2022-10-11T05:43:12.236Z,9.52
2022-10-11T05:45:39.751Z,11.05
2022-10-11T05:48:06.835Z,13.18
2022-10-11T05:50:33.727Z,11.02
2022-10-11T05:53:00.479Z,13.60
2022-10-11T05:55:27.758Z,14.27
2022-10-11T05:57:55.466Z,10.88
2022-10-11T06:00:22.602Z,10.93
2022-10-11T06:02:49.626Z,13.80
2022-10-11T06:05:16.602Z,15.55
2022-10-11T06:07:43.446Z,12.27
2022-10-11T06:10:10.500Z,12.27
2022-10-11T06:12:37.542Z,13.88
2022-10-11T06:15:05.044Z,11.77
2022-10-11T06:17:32.131Z,13.20
2022-10-11T06:19:58.889Z,11.63
2022-10-11T06:22:26.716Z,14.90
2022-10-11T06:24:53.519Z,17.23
2022-10-11T06:27:20.275Z,12.48
2022-10-11T06:29:47.218Z,12.90
2022-10-11T06:32:14.030Z,15.40
2022-10-11T06:34:40.978Z,14.10
2022-10-11T06:37:08.006Z,13.48
2022-10-11T06:39:35.125Z,16.63
2022-10-11T06:42:02.079Z,18.02
2022-10-11T06:44:29.354Z,14.63
2022-10-11T06:46:56.129Z,15.93
2022-10-11T06:49:23.608Z,16.40
2022-10-11T06:51:50.802Z,13.57
2022-10-11T06:54:17.683Z,15.82
2022-10-11T06:56:45.716Z,15.27
2022-10-11T06:59:13.578Z,15.77
2022-10-11T07:01:40.718Z,15.63
2022-10-11T07:04:08.370Z,16.23
2022-10-11T07:06:39.736Z,13.55
2022-10-11T07:09:07.171Z,15.25
2022-10-11T07:11:34.382Z,14.05
2022-10-11T07:14:04.302Z,12.15
2022-10-11T07:16:31.135Z,16.20
2022-10-11T07:19:00.795Z,13.63
2022-10-11T07:21:28.812Z,14.75
2022-10-11T07:23:55.611Z,10.88
2022-10-11T07:26:22.359Z,15.00
2022-10-11T07:28:49.301Z,10.25
2022-10-11T07:31:20.156Z,11.38
2022-10-11T07:33:46.963Z,15.38
2022-10-11T07:36:14.012Z,12.63
2022-10-11T07:38:42.014Z,13.02
2022-10-11T07:41:09.427Z,12.23
2022-10-11T07:43:36.607Z,13.48
2022-10-11T07:46:05.125Z,16.23
2022-10-11T07:48:32.679Z,14.45
2022-10-11T07:51:15.915Z,12.60
2022-10-11T07:53:43.680Z,14.35
2022-10-11T07:56:12.589Z,12.07
2022-10-11T07:58:40.165Z,12.40
2022-10-11T08:01:07.639Z,10.35
2022-10-11T08:03:34.713Z,9.20
2022-10-11T08:06:02.639Z,10.20
2022-10-11T08:08:29.709Z,9.68
2022-10-11T08:10:56.780Z,8.55
2022-10-11T08:13:23.974Z,9.93
2022-10-11T08:15:50.839Z,15.15
2022-10-11T08:18:17.695Z,13.80
2022-10-11T08:20:44.654Z,13.95
2022-10-11T08:23:11.733Z,14.73
2022-10-11T08:25:42.584Z,10.25
2022-10-11T08:28:10.288Z,12.48
2022-10-11T08:30:37.192Z,12.23
2022-10-11T08:33:08.284Z,10.00
2022-10-11T08:35:36.119Z,11.32
2022-10-11T08:38:02.924Z,15.10
2022-10-11T08:40:34.975Z,12.70
2022-10-11T08:43:06.772Z,12.18
2022-10-11T08:45:43.148Z,12.57
2022-10-11T08:48:15.366Z,10.23
2022-10-11T08:50:44.434Z,12.23
2022-10-11T08:53:16.041Z,10.30
2022-10-11T09:00:44.096Z,10.57
2022-10-11T09:03:21.191Z,9.82
2022-10-11T09:06:19.809Z,8.43
2022-10-11T09:08:55.849Z,11.88
2022-10-11T09:11:41.302Z,9.38
2022-10-11T09:14:26.760Z,7.20
2022-10-11T09:17:07.126Z,11.50
2022-10-11T09:19:36.685Z,8.13
2022-10-11T09:22:06.250Z,9.30
2022-10-11T09:24:39.400Z,9.45
2022-10-11T09:27:50.343Z,12.43
2022-10-11T09:30:18.247Z,9.80
2022-10-11T09:35:20.156Z,14.15
2022-10-11T09:37:49.708Z,12.13
2022-10-11T09:40:20.043Z,6.97
2022-10-11T09:42:49.301Z,10.40
2022-10-11T09:45:20.689Z,9.80
2022-10-11T09:47:49.311Z,12.57
2022-10-11T09:50:23.099Z,11.98
2022-10-11T09:52:57.199Z,7.97
2022-10-11T09:55:30.079Z,11.13
2022-10-11T09:57:57.506Z,7.30
2022-10-11T10:00:27.602Z,10.57
2022-10-11T10:03:01.605Z,11.18
2022-10-11T10:05:32.434Z,10.43
2022-10-11T10:08:05.494Z,12.85
2022-10-11T10:10:34.555Z,11.15
2022-10-11T10:13:11.101Z,13.93
2022-10-11T10:15:41.171Z,12.73
2022-10-11T10:18:18.800Z,8.75
2022-10-11T10:20:50.912Z,10.07
2022-10-11T10:23:26.251Z,11.43
2022-10-11T10:26:18.060Z,10.30
2022-10-11T10:28:54.682Z,6.45
2022-10-11T10:31:23.117Z,10.90
2022-10-11T10:33:51.611Z,10.55
2022-10-11T10:36:28.953Z,12.13
2022-10-11T10:39:01.728Z,8.63
2022-10-11T10:41:28.577Z,10.88
2022-10-11T10:43:56.671Z,10.88
2022-10-11T10:46:35.785Z,6.90
2022-10-11T10:49:48.904Z,7.82
2022-10-11T10:52:05.632Z,10.15
2022-10-11T10:54:32.381Z,9.35
2022-10-11T10:57:02.459Z,10.45
2022-10-11T10:59:41.398Z,7.78
2022-10-11T11:02:35.350Z,9.05
2022-10-11T11:05:21.443Z,8.90
2022-10-11T11:07:54.165Z,9.25
2022-10-11T11:10:22.788Z,9.50
2022-10-11T11:13:08.114Z,7.75
2022-10-11T11:15:41.336Z,10.43
2022-10-11T11:18:26.784Z,11.13
2022-10-11T11:21:19.084Z,7.75
2022-10-11T11:23:49.050Z,8.35
2022-10-11T11:26:16.233Z,9.38
2022-10-11T11:28:48.627Z,6.43
2022-10-11T11:31:39.187Z,9.15
2022-10-11T11:34:20.338Z,7.10
2022-10-11T11:36:51.247Z,7.75
2022-10-11T11:39:22.360Z,9.00
2022-10-11T11:42:08.098Z,8.55
2022-10-11T11:44:38.563Z,7.32
2022-10-11T11:47:11.980Z,13.88
2022-10-11T11:49:41.845Z,7.45
2022-10-11T11:52:14.193Z,13.43
2022-10-11T11:54:43.810Z,4.97
2022-10-11T11:57:22.716Z,9.05
2022-10-11T11:59:56.108Z,6.47
2022-10-11T12:02:25.671Z,6.05
2022-10-11T12:04:56.134Z,5.30
2022-10-11T12:07:24.344Z,8.75
2022-10-11T12:10:12.912Z,7.47
2022-10-11T12:12:40.461Z,8.32
2022-10-11T12:15:13.279Z,7.22
2022-10-11T12:18:00.612Z,8.35
2022-10-11T12:20:31.893Z,7.65
2022-10-11T12:25:35.781Z,7.07
2022-10-11T12:28:24.819Z,8.80
2022-10-11T12:30:53.516Z,8.20
2022-10-11T12:33:24.981Z,6.93
2022-10-11T12:35:54.909Z,9.00
2022-10-11T12:38:26.156Z,8.48
2022-10-11T12:40:57.098Z,5.68
2022-10-11T12:43:26.195Z,8.45
2022-10-11T12:45:56.068Z,6.70
2022-10-11T12:48:33.133Z,6.13
2022-10-11T12:51:03.236Z,4.97
2022-10-11T12:53:36.801Z,5.32
2022-10-11T12:56:21.184Z,3.53
2022-10-11T12:58:53.192Z,2.72
2022-10-11T13:01:22.354Z,4.65
2022-10-11T13:04:03.001Z,2.78
2022-10-11T13:06:36.605Z,4.40
2022-10-11T13:09:06.749Z,5.70
2022-10-11T13:11:39.079Z,3.53
2022-10-11T13:14:09.832Z,4.80
2022-10-11T13:16:55.595Z,3.75
2022-10-11T13:19:26.099Z,4.35
2022-10-11T13:21:57.768Z,5.25
2022-10-11T13:24:25.307Z,5.50
2022-10-11T13:26:54.519Z,4.10
2022-10-11T13:29:30.141Z,4.53
2022-10-11T13:31:59.668Z,4.32
2022-10-11T13:34:32.969Z,5.30
2022-10-11T13:37:05.543Z,4.57
2022-10-11T13:39:39.097Z,5.20
2022-10-11T13:42:08.941Z,3.60
2022-10-11T13:44:36.524Z,4.40
2022-10-11T13:47:03.760Z,3.15
2022-10-11T13:49:37.727Z,5.90
2022-10-11T13:52:20.856Z,4.75
2022-10-11T13:54:55.959Z,6.78
2022-10-11T13:57:24.739Z,2.53
2022-10-11T13:59:54.221Z,4.32
2022-10-11T14:02:23.860Z,3.22
2022-10-11T14:04:53.827Z,4.60
2022-10-11T14:07:38.667Z,4.30
2022-10-11T14:10:09.409Z,3.80
2022-10-11T14:12:40.187Z,4.10
2022-10-11T14:15:25.099Z,4.10
2022-10-11T14:17:52.013Z,4.82
2022-10-11T14:20:32.262Z,3.50
2022-10-11T14:23:03.287Z,6.45
2022-10-11T14:25:30.241Z,3.95
2022-10-11T14:27:57.495Z,3.75
2022-10-11T14:30:28.138Z,2.47
2022-10-11T14:32:59.462Z,5.97
2022-10-11T14:35:27.798Z,4.15
2022-10-11T14:37:57.652Z,6.03
2022-10-11T14:40:27.073Z,4.93
2022-10-11T14:42:54.149Z,3.40
2022-10-11T14:45:23.558Z,4.43
2022-10-11T14:47:50.706Z,5.32
2022-10-11T14:50:21.188Z,4.50
2022-10-11T14:52:47.933Z,5.95
2022-10-11T14:55:14.701Z,5.10
2022-10-11T14:57:41.502Z,5.78
2022-10-11T15:00:20.357Z,5.20
2022-10-11T15:02:47.250Z,4.85
2022-10-11T15:05:14.190Z,5.18
2022-10-11T15:07:41.032Z,4.95
2022-10-11T15:10:27.923Z,5.30
2022-10-11T15:12:55.359Z,5.70
2022-10-11T15:15:23.680Z,8.02
2022-10-11T15:17:55.122Z,4.53
2022-10-11T15:20:24.500Z,6.20
2022-10-11T15:22:51.542Z,6.13
2022-10-11T15:25:22.314Z,3.85
2022-10-11T15:27:49.300Z,7.45
2022-10-11T15:30:21.224Z,4.63
2022-10-11T15:32:51.290Z,6.32
2022-10-11T15:35:18.550Z,4.07
2022-10-11T15:37:54.550Z,5.43
2022-10-11T15:40:26.098Z,7.63
2022-10-11T15:42:53.637Z,7.72
2022-10-11T15:45:21.040Z,4.13
2022-10-11T15:47:48.408Z,6.07
2022-10-11T15:50:24.042Z,6.78
2022-10-11T15:52:51.777Z,6.53
2022-10-11T15:55:18.727Z,5.38
2022-10-11T15:57:45.630Z,4.80
2022-10-11T16:00:12.560Z,7.13
2022-10-11T16:02:41.919Z,4.28
2022-10-11T16:05:11.643Z,5.97
2022-10-11T16:07:41.431Z,4.90
2022-10-11T16:10:08.621Z,5.13
2022-10-11T16:12:35.397Z,5.90
2022-10-11T16:15:02.145Z,6.82
2022-10-11T16:17:28.908Z,6.45
2022-10-11T16:19:58.138Z,6.28
2022-10-11T16:22:24.991Z,5.97
2022-10-11T16:24:51.751Z,3.53
2022-10-11T16:27:19.139Z,4.80
2022-10-11T16:29:45.975Z,4.95
2022-10-11T16:32:12.765Z,9.85
2022-10-11T16:34:39.566Z,7.47
2022-10-11T16:37:06.300Z,5.53
2022-10-11T16:39:33.245Z,6.68
2022-10-11T16:42:00.029Z,7.15
2022-10-11T16:44:27.787Z,6.95
2022-10-11T16:46:55.196Z,6.55
2022-10-11T16:49:23.684Z,7.55
2022-10-11T16:51:51.370Z,4.43
2022-10-11T16:54:21.299Z,5.75
2022-10-11T16:56:50.882Z,7.80
2022-10-11T16:59:18.028Z,5.50
2022-10-11T17:01:45.296Z,4.38
2022-10-11T17:04:12.354Z,6.78
2022-10-11T17:06:40.208Z,6.18
2022-10-11T17:09:07.259Z,5.80
2022-10-11T17:11:34.042Z,8.60
2022-10-11T17:14:01.067Z,10.23
2022-10-11T17:16:28.301Z,7.00
2022-10-11T17:18:55.121Z,6.00
2022-10-11T17:21:22.148Z,7.53
2022-10-11T17:23:49.561Z,9.05
2022-10-11T17:26:18.732Z,6.78
2022-10-11T17:28:45.826Z,7.97
2022-10-11T17:31:12.690Z,6.30
2022-10-11T17:33:39.540Z,6.72
2022-10-11T17:36:13.884Z,6.95
2022-10-11T17:38:40.647Z,8.35
2022-10-11T17:41:10.340Z,6.88
2022-10-11T17:43:37.071Z,7.78
2022-10-11T17:46:08.792Z,7.43
2022-10-11T17:48:42.428Z,8.35
2022-10-11T17:51:13.728Z,8.15
2022-10-11T17:53:40.555Z,8.52
2022-10-11T17:56:08.832Z,14.60
2022-10-11T17:58:35.752Z,21.52
2022-10-11T18:01:03.909Z,16.50
2022-10-11T18:03:31.015Z,17.73
2022-10-11T18:05:57.884Z,16.65
2022-10-11T18:08:24.842Z,19.38
2022-10-11T18:10:51.667Z,21.63
2022-10-11T18:13:18.437Z,16.48
2022-10-11T18:15:46.142Z,13.40
2022-10-11T18:18:15.678Z,18.25
2022-10-11T18:20:46.766Z,12.60
2022-10-11T18:23:14.491Z,10.90
2022-10-11T18:25:41.288Z,11.52
2022-10-11T18:28:08.493Z,9.80
2022-10-11T18:30:35.340Z,12.52
2022-10-11T18:33:02.097Z,10.02
2022-10-11T18:35:28.915Z,10.57
2022-10-11T18:38:00.708Z,11.52
2022-10-11T18:40:27.921Z,13.75
2022-10-11T18:42:54.676Z,11.63
2022-10-11T18:45:21.431Z,15.18
2022-10-11T18:47:50.201Z,12.05
2022-10-11T18:50:17.562Z,10.73
2022-10-11T18:52:45.290Z,13.48
2022-10-11T18:55:12.034Z,13.48
2022-10-11T18:57:38.830Z,10.93
2022-10-11T19:00:12.011Z,12.02
2022-10-11T19:02:52.492Z,10.25
2022-10-11T19:05:19.466Z,13.05
2022-10-11T19:07:46.249Z,9.82
2022-10-11T19:10:13.048Z,9.55
2022-10-11T19:12:39.789Z,9.90
2022-10-11T19:15:06.719Z,11.65
2022-10-11T19:17:33.920Z,9.65
2022-10-11T19:20:01.248Z,8.57
2022-10-11T19:22:28.277Z,11.55
2022-10-11T19:24:55.152Z,12.18
2022-10-11T19:27:21.943Z,12.38
2022-10-11T19:29:48.781Z,11.57
2022-10-11T19:32:15.763Z,13.38
2022-10-11T19:34:42.495Z,20.73
2022-10-11T19:37:13.233Z,15.73
2022-10-11T19:39:40.691Z,14.30
2022-10-11T19:42:07.560Z,12.48
2022-10-11T19:44:39.795Z,11.43
2022-10-11T19:47:06.832Z,9.10
2022-10-11T19:49:33.645Z,13.32
2022-10-11T19:52:01.303Z,13.70
2022-10-11T19:54:28.415Z,16.58
2022-10-11T19:56:55.240Z,13.77
2022-10-11T19:59:22.032Z,14.45
2022-10-11T20:01:52.773Z,15.48
2022-10-11T20:04:51.154Z,13.35
2022-10-11T20:07:07.438Z,15.77
2022-10-11T20:09:36.867Z,15.63
2022-10-11T20:12:03.661Z,17.20
2022-10-11T20:14:30.435Z,12.65
2022-10-11T20:16:57.456Z,14.00
2022-10-11T20:19:30.387Z,14.95
2022-10-11T20:21:57.979Z,16.02
2022-10-11T20:24:27.400Z,16.38
2022-10-11T20:26:55.153Z,16.73
2022-10-11T20:29:23.253Z,25.23
2022-10-11T20:31:50.084Z,27.75
2022-10-11T20:34:17.243Z,26.63
2022-10-11T20:36:48.944Z,25.17
2022-10-11T20:39:16.535Z,23.33
2022-10-11T20:41:43.805Z,24.05
2022-10-11T20:44:13.180Z,23.55
2022-10-11T20:46:40.025Z,25.45
2022-10-11T20:49:08.128Z,23.10
2022-10-11T20:51:35.850Z,31.50
2022-10-11T20:54:04.123Z,28.55
2022-10-11T20:56:31.190Z,23.65
2022-10-11T20:59:00.526Z,19.58
2022-10-11T21:01:29.102Z,18.50
2022-10-11T21:03:59.823Z,20.00
2022-10-11T21:06:27.346Z,20.30
2022-10-11T21:08:54.775Z,18.67
2022-10-11T21:11:21.742Z,21.05
2022-10-11T21:13:48.499Z,20.63
2022-10-11T21:16:15.913Z,20.83
2022-10-11T21:18:42.894Z,20.58
2022-10-11T21:21:13.311Z,22.45
2022-10-11T21:23:40.563Z,20.35
2022-10-11T21:26:08.661Z,22.13
2022-10-11T21:28:35.787Z,22.98
2022-10-11T21:31:06.738Z,21.92
2022-10-11T21:33:34.290Z,24.10
2022-10-11T21:36:05.030Z,23.00
2022-10-11T21:38:32.035Z,22.50
2022-10-11T21:40:59.026Z,22.00
2022-10-11T21:43:25.855Z,20.85
2022-10-11T21:45:52.675Z,24.88
2022-10-11T21:48:19.499Z,21.52
2022-10-11T21:50:52.088Z,25.73
2022-10-11T21:53:18.849Z,27.60
2022-10-11T21:55:48.213Z,22.17
2022-10-11T21:58:14.994Z,25.40
2022-10-11T22:00:41.752Z,24.10
2022-10-11T22:03:08.694Z,25.42
2022-10-11T22:05:35.547Z,26.38
2022-10-11T22:08:02.350Z,26.45
2022-10-11T22:10:29.161Z,26.45
2022-10-11T22:12:55.966Z,29.25
2022-10-11T22:15:22.704Z,31.73
2022-10-11T22:17:49.492Z,28.85
2022-10-11T22:20:16.271Z,26.98
2022-10-11T22:22:43.024Z,29.33
2022-10-11T22:25:09.830Z,30.50
2022-10-11T22:27:36.627Z,29.67
2022-10-11T22:30:03.609Z,31.05
2022-10-11T22:32:30.468Z,26.77
2022-10-11T22:34:59.182Z,27.55
2022-10-11T22:37:26.039Z,32.53
2022-10-11T22:39:52.841Z,29.85
2022-10-11T22:42:21.358Z,31.02
2022-10-11T22:44:51.033Z,31.20
2022-10-11T22:47:18.166Z,28.75
2022-10-11T22:49:47.724Z,30.63
2022-10-11T22:52:14.893Z,30.05
2022-10-11T22:54:42.130Z,32.67
2022-10-11T22:57:08.880Z,32.13
2022-10-11T22:59:35.638Z,28.42
2022-10-11T23:02:02.447Z,30.55
2022-10-11T23:04:31.658Z,32.65
2022-10-11T23:07:04.019Z,28.23
2022-10-11T23:09:31.895Z,29.25
2022-10-11T23:12:01.780Z,25.73
2022-10-11T23:14:28.527Z,31.23
2022-10-11T23:16:55.297Z,30.83
2022-10-11T23:19:22.081Z,35.33
2022-10-11T23:21:48.918Z,29.58
2022-10-11T23:24:15.771Z,27.35
2022-10-11T23:26:42.583Z,30.73
2022-10-11T23:29:09.314Z,28.02
2022-10-11T23:31:36.217Z,29.02
2022-10-11T23:34:03.034Z,24.98
2022-10-11T23:36:29.841Z,28.67
2022-10-11T23:38:57.718Z,27.23
2022-10-11T23:41:29.377Z,26.83
2022-10-11T23:46:25.891Z,23.27
2022-10-11T23:48:52.644Z,23.63
2022-10-11T23:51:19.405Z,22.58
2022-10-11T23:53:46.465Z,24.55
2022-10-11T23:56:13.203Z,26.20
2022-10-11T23:58:40.408Z,22.75
